createdAt,value
2018-06-21T00:00:58.894Z,79.50
2018-06-21T00:06:02.123Z,79.50
2018-06-21T00:11:05.281Z,79.30
2018-06-21T00:16:08.438Z,80.10
2018-06-21T00:21:11.615Z,80.80
2018-06-21T00:26:14.747Z,80.60
2018-06-21T00:31:17.930Z,80.60
2018-06-21T00:36:22.161Z,80.40
2018-06-21T00:41:25.445Z,80.50
2018-06-21T00:46:28.611Z,80.80
2018-06-21T00:51:32.839Z,81.20
2018-06-21T00:56:36.022Z,81.10
2018-06-21T01:01:39.281Z,81.70
2018-06-21T01:06:42.464Z,81.90
2018-06-21T01:11:45.625Z,82.00
2018-06-21T01:16:48.882Z,81.70
2018-06-21T01:21:52.054Z,81.40
2018-06-21T01:26:55.202Z,81.90
2018-06-21T01:31:58.390Z,82.00
2018-06-21T01:37:01.536Z,82.10
2018-06-21T01:42:04.713Z,82.60
2018-06-21T01:47:08.982Z,82.60
2018-06-21T01:52:12.154Z,82.80
2018-06-21T01:57:15.302Z,82.80
2018-06-21T02:02:18.458Z,83.20
2018-06-21T02:07:21.690Z,83.20
2018-06-21T02:12:24.936Z,83.80
2018-06-21T02:17:28.148Z,83.90
2018-06-21T02:22:31.627Z,84.10
2018-06-21T02:27:34.818Z,83.90
2018-06-21T02:32:37.986Z,83.80
2018-06-21T02:37:41.162Z,84.00
2018-06-21T02:42:44.338Z,84.00
2018-06-21T02:47:47.517Z,83.70
2018-06-21T02:52:50.711Z,83.90
2018-06-21T02:57:54.277Z,84.80
2018-06-21T03:02:57.498Z,85.10
2018-06-21T03:08:00.672Z,84.70
2018-06-21T03:13:03.851Z,84.90
2018-06-21T03:18:07.010Z,84.80
2018-06-21T03:23:10.175Z,84.80
2018-06-21T03:28:13.397Z,84.90
2018-06-21T03:33:16.565Z,84.80
2018-06-21T03:38:19.870Z,85.50
2018-06-21T03:43:23.028Z,85.10
2018-06-21T03:48:26.257Z,85.60
2018-06-21T03:53:29.526Z,85.70
2018-06-21T03:58:32.942Z,85.70
2018-06-21T04:03:36.123Z,86.20
2018-06-21T04:08:39.302Z,86.20
2018-06-21T04:13:42.472Z,86.20
2018-06-21T04:18:46.122Z,86.50
2018-06-21T04:23:49.287Z,86.60
2018-06-21T04:28:52.458Z,86.60
2018-06-21T04:33:56.616Z,86.70
2018-06-21T04:38:59.834Z,87.00
2018-06-21T04:44:03.171Z,86.70
2018-06-21T04:49:06.330Z,86.70
2018-06-21T04:54:10.439Z,87.00
2018-06-21T04:59:13.622Z,87.10
2018-06-21T05:04:16.850Z,87.00
2018-06-21T05:09:20.014Z,87.20
2018-06-21T05:14:23.181Z,86.80
2018-06-21T05:19:26.473Z,87.30
2018-06-21T05:24:30.163Z,86.60
2018-06-21T05:29:33.402Z,86.60
2018-06-21T05:34:36.645Z,86.70
2018-06-21T05:39:39.826Z,87.90
2018-06-21T05:44:43.070Z,87.50
2018-06-21T05:49:46.243Z,88.00
2018-06-21T05:54:49.407Z,91.60
2018-06-21T05:59:52.571Z,93.00
2018-06-21T06:04:55.743Z,93.00
2018-06-21T06:09:58.915Z,94.00
2018-06-21T06:15:03.000Z,94.20
2018-06-21T06:20:06.197Z,94.00
2018-06-21T06:25:09.314Z,94.30
2018-06-21T06:30:13.029Z,94.50
2018-06-21T06:35:16.187Z,94.80
2018-06-21T06:40:19.492Z,95.50
2018-06-21T06:45:22.642Z,95.40
2018-06-21T06:50:25.826Z,95.40
2018-06-21T06:55:28.976Z,94.30
2018-06-21T07:00:32.243Z,94.40
2018-06-21T07:05:36.763Z,94.70
2018-06-21T07:10:39.950Z,95.10
2018-06-21T07:15:43.555Z,94.70
2018-06-21T07:20:46.783Z,94.70
2018-06-21T07:25:52.427Z,94.60
2018-06-21T07:30:55.785Z,94.80
2018-06-21T07:36:04.699Z,94.90
2018-06-21T07:41:18.759Z,94.90
2018-06-21T07:46:22.597Z,95.50
2018-06-21T07:51:25.883Z,95.10
2018-06-21T07:56:29.046Z,94.10
2018-06-21T08:01:32.246Z,93.80
2018-06-21T08:06:36.536Z,94.00
2018-06-21T08:11:39.694Z,92.50
2018-06-21T08:16:44.442Z,92.40
2018-06-21T08:21:47.623Z,90.50
2018-06-21T08:26:50.877Z,90.80
2018-06-21T08:31:54.947Z,91.40
2018-06-21T08:36:58.132Z,90.10
2018-06-21T08:42:01.286Z,89.00
2018-06-21T08:47:04.502Z,90.30
2018-06-21T08:52:07.723Z,89.00
2018-06-21T08:57:10.866Z,89.40
2018-06-21T09:02:14.043Z,87.00
2018-06-21T09:07:17.214Z,86.50
2018-06-21T09:12:20.409Z,84.50
2018-06-21T09:17:23.591Z,86.00
2018-06-21T09:22:26.762Z,82.50
2018-06-21T09:27:30.169Z,77.40
2018-06-21T09:32:33.342Z,75.20
2018-06-21T09:37:41.915Z,76.50
2018-06-21T09:42:50.630Z,73.10
2018-06-21T09:48:00.158Z,71.00
2018-06-21T09:53:09.970Z,71.70
2018-06-21T09:58:13.139Z,72.90
2018-06-21T10:03:18.379Z,69.30
2018-06-21T10:08:21.571Z,71.00
2018-06-21T10:13:24.758Z,66.70
2018-06-21T10:18:28.003Z,68.30
2018-06-21T10:23:31.185Z,63.00
2018-06-21T10:28:34.444Z,58.90
2018-06-21T10:33:38.741Z,61.40
2018-06-21T10:38:42.027Z,59.20
2018-06-21T10:43:45.301Z,57.50
2018-06-21T10:48:48.590Z,63.50
2018-06-21T10:53:55.035Z,59.40
2018-06-21T10:58:58.326Z,57.90
2018-06-21T11:04:01.495Z,57.60
2018-06-21T11:09:07.122Z,54.90
2018-06-21T11:14:10.366Z,52.10
2018-06-21T11:19:13.599Z,52.00
2018-06-21T11:24:16.854Z,52.10
2018-06-21T11:29:20.104Z,50.70
2018-06-21T11:34:23.361Z,50.90
2018-06-21T11:39:26.536Z,52.10
2018-06-21T11:44:30.856Z,51.60
2018-06-21T11:49:34.026Z,52.30
2018-06-21T11:54:42.650Z,51.80
2018-06-21T11:59:51.869Z,52.20
2018-06-21T12:04:55.103Z,54.50
2018-06-21T12:09:58.482Z,49.80
2018-06-21T12:15:01.739Z,50.30
2018-06-21T12:20:04.902Z,50.80
2018-06-21T12:25:08.097Z,50.70
2018-06-21T12:30:11.314Z,49.10
2018-06-21T12:35:14.522Z,48.90
2018-06-21T12:40:17.730Z,48.50
2018-06-21T12:45:20.974Z,49.50
2018-06-21T12:50:24.150Z,48.80
2018-06-21T12:55:27.298Z,47.50
2018-06-21T13:00:30.701Z,46.90
2018-06-21T13:05:33.840Z,48.70
2018-06-21T13:10:48.419Z,45.40
2018-06-21T13:15:51.674Z,44.20
2018-06-21T13:20:56.026Z,44.00
2018-06-21T13:25:59.851Z,43.70
2018-06-21T13:31:02.998Z,43.60
2018-06-21T13:36:06.197Z,43.20
2018-06-21T13:41:09.360Z,38.80
2018-06-21T13:46:12.519Z,41.20
2018-06-21T13:51:16.701Z,41.10
2018-06-21T13:56:19.879Z,42.40
2018-06-21T14:01:23.325Z,42.10
2018-06-21T14:06:26.514Z,42.40
2018-06-21T14:11:29.686Z,43.40
2018-06-21T14:16:33.049Z,44.90
2018-06-21T14:21:36.309Z,42.80
2018-06-21T14:26:39.985Z,41.90
2018-06-21T14:31:43.174Z,43.00
2018-06-21T14:36:46.432Z,45.40
2018-06-21T14:41:49.618Z,46.20
2018-06-21T14:46:52.776Z,45.50
2018-06-21T14:51:55.962Z,45.10
2018-06-21T14:56:59.264Z,47.40
2018-06-21T15:02:02.584Z,45.00
2018-06-21T15:07:05.791Z,45.50
2018-06-21T15:12:09.023Z,45.00
2018-06-21T15:17:12.218Z,46.10
2018-06-21T15:22:15.367Z,45.80
2018-06-21T15:27:19.145Z,45.90
2018-06-21T15:32:22.430Z,45.50
2018-06-21T15:37:25.726Z,47.10
2018-06-21T15:42:28.955Z,47.70
2018-06-21T15:47:32.168Z,48.10
2018-06-21T15:52:35.366Z,47.50
2018-06-21T15:57:38.744Z,47.20
2018-06-21T16:02:42.834Z,47.70
2018-06-21T16:07:46.048Z,47.80
2018-06-21T16:12:50.235Z,49.50
2018-06-21T16:17:53.395Z,50.20
2018-06-21T16:22:56.622Z,50.70
2018-06-21T16:27:59.705Z,50.80
2018-06-21T16:38:06.094Z,52.20
2018-06-21T16:43:09.303Z,54.00
2018-06-21T16:48:12.503Z,53.70
2018-06-21T16:53:15.699Z,54.60
2018-06-21T16:58:18.878Z,55.70
2018-06-21T17:03:22.035Z,57.60
2018-06-21T17:08:25.221Z,57.20
2018-06-21T17:13:28.575Z,57.20
2018-06-21T17:18:31.735Z,57.00
2018-06-21T17:23:34.910Z,56.10
2018-06-21T17:33:41.966Z,57.10
2018-06-21T17:38:45.143Z,57.00
2018-06-21T17:54:00.907Z,58.70
2018-06-21T17:59:04.076Z,58.50
2018-06-21T18:04:07.276Z,58.40
2018-06-21T18:09:10.960Z,58.70
2018-06-21T18:14:14.204Z,59.30
2018-06-21T18:19:17.398Z,60.30
2018-06-21T18:24:20.613Z,62.10
2018-06-21T18:29:23.786Z,71.10
2018-06-21T18:34:26.957Z,73.00
2018-06-21T18:39:30.095Z,74.90
2018-06-21T18:44:33.352Z,75.90
2018-06-21T18:49:37.375Z,72.30
2018-06-21T18:54:40.606Z,71.40
2018-06-21T18:59:43.842Z,67.30
2018-06-21T19:04:47.074Z,68.20
2018-06-21T19:09:55.550Z,69.90
2018-06-21T19:14:58.740Z,70.80
2018-06-21T19:20:01.899Z,66.70
2018-06-21T19:25:05.110Z,71.00
2018-06-21T19:30:09.255Z,67.90
2018-06-21T19:35:12.402Z,68.20
2018-06-21T19:40:15.568Z,70.60
2018-06-21T19:45:18.807Z,66.50
2018-06-21T19:50:21.993Z,67.30
2018-06-21T19:55:25.191Z,67.70
2018-06-21T20:00:28.367Z,65.10
2018-06-21T20:05:31.598Z,65.80
2018-06-21T20:10:34.767Z,64.40
2018-06-21T20:15:53.950Z,65.00
2018-06-21T20:20:57.140Z,63.50
2018-06-21T20:26:00.359Z,64.80
2018-06-21T20:31:03.842Z,67.20
2018-06-21T20:36:07.025Z,65.30
2018-06-21T20:41:10.674Z,67.00
2018-06-21T20:46:13.842Z,66.20
2018-06-21T20:51:16.993Z,65.50
2018-06-21T20:56:20.132Z,66.10
2018-06-21T21:01:23.262Z,66.70
2018-06-21T21:06:26.415Z,67.90
2018-06-21T21:11:29.542Z,67.20
2018-06-21T21:16:32.695Z,67.20
2018-06-21T21:21:35.914Z,66.80
2018-06-21T21:26:39.146Z,67.00
2018-06-21T21:31:42.313Z,68.50
2018-06-21T21:36:45.452Z,68.70
2018-06-21T21:41:48.590Z,69.00
2018-06-21T21:46:51.726Z,69.00
2018-06-21T21:51:54.870Z,69.40
2018-06-21T21:56:58.002Z,70.20
2018-06-21T22:02:01.150Z,71.90
2018-06-21T22:07:04.835Z,71.10
2018-06-21T22:12:08.309Z,72.10
2018-06-21T22:17:11.438Z,72.20
2018-06-21T22:22:14.598Z,72.50
2018-06-21T22:27:17.710Z,72.80
2018-06-21T22:32:20.868Z,73.20
2018-06-21T22:37:24.019Z,72.30
2018-06-21T22:42:27.207Z,72.50
2018-06-21T22:47:30.416Z,72.90
2018-06-21T22:52:33.613Z,72.60
2018-06-21T22:57:36.804Z,73.00
2018-06-21T23:02:39.887Z,73.00
2018-06-21T23:07:43.038Z,73.50
2018-06-21T23:12:46.199Z,73.70
2018-06-21T23:17:49.344Z,73.50
2018-06-21T23:22:53.506Z,73.30
2018-06-21T23:27:56.679Z,72.60
2018-06-21T23:32:59.821Z,72.40
2018-06-21T23:38:02.946Z,71.90
2018-06-21T23:43:06.146Z,72.10
2018-06-21T23:48:09.318Z,72.00
2018-06-21T23:53:12.495Z,72.60
2018-06-21T23:58:15.637Z,72.50
